logo dgac
Domingo 23 de Julio del 2017
Buscar por aerodromo o helipuerto
Ingrese nombre de aeródromo, localidad o designador OACI:

Buscar por Fir

METAR del 23-07-2017 a las 06:00 UTC
METAR SCVM 230600Z 08004KT 9999 SCT015 BKN030 12/09 Q1021
Viento: dirección 080 grados, velocidad 4 nudos
Visibilidad: 10 km o más
Nubes: Nubosidad parcial a 1500 pies sobre el nivel del aeródromo
Nubes: Nublado a 3000 pies sobre el nivel del aeródromo
Temperatura: 12 °C
Rocío: 9 °C
Humedad_relativa: 82%
Presión: 1021 hPa
METAR del 23-07-2017 a las 05:00 UTC
METAR SCVM 230500Z 12003KT 9999 SCT015 BKN030 12/09 Q1021
Viento: dirección 120 grados, velocidad 3 nudos
Visibilidad: 10 km o más
Nubes: Nubosidad parcial a 1500 pies sobre el nivel del aeródromo
Nubes: Nublado a 3000 pies sobre el nivel del aeródromo
Temperatura: 12 °C
Rocío: 9 °C
Humedad_relativa: 82%
Presión: 1021 hPa
METAR del 23-07-2017 a las 04:00 UTC
METAR SCVM 230400Z 05004KT 9999 SCT015 BKN030 13/09 Q1021
Viento: dirección 050 grados, velocidad 4 nudos
Visibilidad: 10 km o más
Nubes: Nubosidad parcial a 1500 pies sobre el nivel del aeródromo
Nubes: Nublado a 3000 pies sobre el nivel del aeródromo
Temperatura: 13 °C
Rocío: 9 °C
Humedad_relativa: 77%
Presión: 1021 hPa
METAR del 23-07-2017 a las 03:00 UTC
METAR SCVM 230300Z 05005KT 9999 FEW020 BKN030 13/09 Q1020
Viento: dirección 050 grados, velocidad 5 nudos
Visibilidad: 10 km o más
Nubes: Escasa nubosidad a 2000 pies sobre el nivel del aeródromo
Nubes: Nublado a 3000 pies sobre el nivel del aeródromo
Temperatura: 13 °C
Rocío: 9 °C
Humedad_relativa: 77%
Presión: 1020 hPa
METAR del 23-07-2017 a las 02:00 UTC
METAR SCVM 230200Z 03005KT 9999 OVC025 13/09 Q1020
Viento: dirección 030 grados, velocidad 5 nudos
Visibilidad: 10 km o más
Nubes: Cubierto a 2500 pies sobre el nivel del aeródromo
Temperatura: 13 °C
Rocío: 9 °C
Humedad_relativa: 77%
Presión: 1020 hPa
METAR del 23-07-2017 a las 01:00 UTC
METAR SCVM 230100Z 02005KT 9999 OVC025 13/09 Q1020
Viento: dirección 020 grados, velocidad 5 nudos
Visibilidad: 10 km o más
Nubes: Cubierto a 2500 pies sobre el nivel del aeródromo
Temperatura: 13 °C
Rocío: 9 °C
Humedad_relativa: 77%
Presión: 1020 hPa
METAR del 23-07-2017 a las 00:00 UTC
METAR SCVM 230000Z 36003KT 9999 OVC025 13/09 Q1020
Viento: dirección 360 grados, velocidad 3 nudos
Visibilidad: 10 km o más
Nubes: Cubierto a 2500 pies sobre el nivel del aeródromo
Temperatura: 13 °C
Rocío: 9 °C
Humedad_relativa: 77%
Presión: 1020 hPa
METAR del 22-07-2017 a las 23:00 UTC
METAR SCVM 222300Z 06003KT 9999 OVC025 13/09 Q1020
Viento: dirección 060 grados, velocidad 3 nudos
Visibilidad: 10 km o más
Nubes: Cubierto a 2500 pies sobre el nivel del aeródromo
Temperatura: 13 °C
Rocío: 9 °C
Humedad_relativa: 77%
Presión: 1020 hPa
METAR del 22-07-2017 a las 22:00 UTC
METAR SCVM 222200Z 36006KT 9999 OVC025 13/10 Q1019
Viento: dirección 360 grados, velocidad 6 nudos
Visibilidad: 10 km o más
Nubes: Cubierto a 2500 pies sobre el nivel del aeródromo
Temperatura: 13 °C
Rocío: 10 °C
Humedad_relativa: 82%
Presión: 1019 hPa
METAR del 22-07-2017 a las 21:00 UTC
METAR SCVM 222100Z 36005KT 9999 OVC025 13/10 Q1019
Viento: dirección 360 grados, velocidad 5 nudos
Visibilidad: 10 km o más
Nubes: Cubierto a 2500 pies sobre el nivel del aeródromo
Temperatura: 13 °C
Rocío: 10 °C
Humedad_relativa: 82%
Presión: 1019 hPa